createdAt,value
2023-04-06T00:00:00.583Z,99414.34
2023-04-06T00:02:28.602Z,99407.84
2023-04-06T00:04:57.074Z,99415.13
2023-04-06T00:07:24.963Z,99412.19
2023-04-06T00:09:53.058Z,99412.50
2023-04-06T00:12:21.566Z,99413.31
2023-04-06T00:14:49.444Z,99407.53
2023-04-06T00:17:17.334Z,99405.63
2023-04-06T00:19:45.568Z,99407.97
2023-04-06T00:22:13.504Z,99406.34
2023-04-06T00:24:41.433Z,99407.63
2023-04-06T00:27:09.709Z,99403.53
2023-04-06T00:29:38.061Z,99401.97
2023-04-06T00:32:06.006Z,99409.06
2023-04-06T00:34:34.417Z,99398.16
2023-04-06T00:37:02.355Z,99396.38
2023-04-06T00:39:30.189Z,99389.91
2023-04-06T00:41:58.765Z,99392.69
2023-04-06T00:44:26.705Z,99381.53
2023-04-06T00:46:54.779Z,99385.34
2023-04-06T00:49:23.012Z,99386.19
2023-04-06T00:51:50.912Z,99382.47
2023-04-06T00:54:18.947Z,99382.06
2023-04-06T00:56:47.259Z,99382.03
2023-04-06T00:59:15.205Z,99380.91
2023-04-06T01:01:43.491Z,99387.22
2023-04-06T01:04:13.786Z,99389.75
2023-04-06T01:06:42.105Z,99384.84
2023-04-06T01:09:10.311Z,99387.44
2023-04-06T01:11:39.034Z,99390.38
2023-04-06T01:14:07.591Z,99394.94
2023-04-06T01:16:36.624Z,99395.81
2023-04-06T01:19:12.595Z,99390.59
2023-04-06T01:21:41.966Z,99389.75
2023-04-06T01:24:11.510Z,99392.16
2023-04-06T01:26:40.308Z,99393.38
2023-04-06T01:29:09.059Z,99389.16
2023-04-06T01:31:37.589Z,99392.75
2023-04-06T01:34:06.035Z,99386.16
2023-04-06T01:36:34.268Z,99387.31
2023-04-06T01:39:02.991Z,99383.47
2023-04-06T01:41:31.206Z,99383.50
2023-04-06T01:43:59.281Z,99378.44
2023-04-06T01:46:28.386Z,99374.06
2023-04-06T01:48:56.718Z,99378.13
2023-04-06T01:51:26.252Z,99372.19
2023-04-06T01:53:54.713Z,99374.38
2023-04-06T01:56:23.364Z,99373.69
2023-04-06T01:58:51.789Z,99374.19
2023-04-06T02:01:20.794Z,99372.09
2023-04-06T02:03:49.362Z,99374.19
2023-04-06T02:06:17.404Z,99377.41
2023-04-06T02:08:45.380Z,99376.13
2023-04-06T02:11:13.774Z,99368.16
2023-04-06T02:13:41.872Z,99375.28
2023-04-06T02:16:10.202Z,99363.63
2023-04-06T02:18:38.521Z,99372.56
2023-04-06T02:21:06.510Z,99359.66
2023-04-06T02:23:34.453Z,99362.88
2023-04-06T02:26:02.800Z,99355.91
2023-04-06T02:28:30.861Z,99355.91
2023-04-06T02:30:59.161Z,99350.12
2023-04-06T02:33:27.405Z,99349.66
2023-04-06T02:35:55.655Z,99357.25
2023-04-06T02:38:24.213Z,99349.25
2023-04-06T02:40:53.301Z,99350.94
2023-04-06T02:43:21.771Z,99343.97
2023-04-06T02:45:50.687Z,99343.44
2023-04-06T02:48:18.955Z,99344.03
2023-04-06T02:50:46.973Z,99347.06
2023-04-06T02:53:15.154Z,99341.62
2023-04-06T02:55:43.303Z,99341.56
2023-04-06T02:58:11.192Z,99345.94
2023-04-06T03:00:39.505Z,99335.59
2023-04-06T03:03:08.851Z,99332.56
2023-04-06T03:05:36.921Z,99332.78
2023-04-06T03:08:05.820Z,99337.50
2023-04-06T03:10:35.268Z,99336.28
2023-04-06T03:13:03.190Z,99332.06
2023-04-06T03:15:31.506Z,99337.81
2023-04-06T03:18:00.720Z,99339.13
2023-04-06T03:20:30.494Z,99339.38
2023-04-06T03:22:59.239Z,99342.38
2023-04-06T03:25:28.036Z,99340.25
2023-04-06T03:27:59.943Z,99337.91
2023-04-06T03:30:28.185Z,99337.78
2023-04-06T03:32:57.130Z,99342.00
2023-04-06T03:35:25.940Z,99339.25
2023-04-06T03:37:54.287Z,99338.91
2023-04-06T03:40:22.250Z,99340.47
2023-04-06T03:42:50.462Z,99331.69
2023-04-06T03:45:19.009Z,99340.41
2023-04-06T03:47:47.468Z,99331.97
2023-04-06T03:50:16.084Z,99342.41
2023-04-06T03:52:45.309Z,99341.56
2023-04-06T03:55:13.379Z,99343.44
2023-04-06T03:57:41.635Z,99337.81
2023-04-06T04:00:10.645Z,99338.87
2023-04-06T04:02:40.824Z,99341.28
2023-04-06T04:05:09.543Z,99338.34
2023-04-06T04:07:38.223Z,99336.19
2023-04-06T04:10:06.974Z,99334.81
2023-04-06T04:12:35.227Z,99336.47
2023-04-06T04:15:04.279Z,99330.81
2023-04-06T04:17:32.309Z,99337.34
2023-04-06T04:20:00.618Z,99340.13
2023-04-06T04:22:31.243Z,99329.16
2023-04-06T04:24:59.186Z,99330.81
2023-04-06T04:27:27.979Z,99333.78
2023-04-06T04:29:56.042Z,99328.19
2023-04-06T04:32:24.230Z,99337.81
2023-04-06T04:34:53.982Z,99340.66
2023-04-06T04:37:22.951Z,99334.81
2023-04-06T04:39:51.385Z,99332.69
2023-04-06T04:42:19.717Z,99334.34
2023-04-06T04:44:47.886Z,99327.69
2023-04-06T04:47:17.581Z,99329.59
2023-04-06T04:49:46.529Z,99334.31
2023-04-06T04:52:16.063Z,99332.31
2023-04-06T04:54:45.394Z,99328.28
2023-04-06T04:57:15.616Z,99326.16
2023-04-06T04:59:44.727Z,99320.84
2023-04-06T05:02:13.733Z,99313.78
2023-04-06T05:04:42.243Z,99310.88
2023-04-06T05:07:11.661Z,99307.19
2023-04-06T05:09:40.260Z,99305.25
2023-04-06T05:12:08.652Z,99300.19
2023-04-06T05:14:37.066Z,99302.56
2023-04-06T05:17:05.940Z,99300.66
2023-04-06T05:19:33.843Z,99301.47
2023-04-06T05:22:02.063Z,99305.25
2023-04-06T05:24:32.930Z,99301.47
2023-04-06T05:27:01.429Z,99307.50
2023-04-06T05:29:30.230Z,99300.37
2023-04-06T05:31:58.612Z,99288.91
2023-04-06T05:34:27.000Z,99288.94
2023-04-06T05:36:55.696Z,99291.13
2023-04-06T05:39:24.611Z,99286.94
2023-04-06T05:41:52.779Z,99283.72
2023-04-06T05:44:21.438Z,99281.69
2023-04-06T05:46:50.867Z,99278.97
2023-04-06T05:49:18.789Z,99282.69
2023-04-06T05:51:46.664Z,99280.47
2023-04-06T05:54:15.372Z,99280.06
2023-04-06T05:56:43.674Z,99271.91
2023-04-06T05:59:12.369Z,99270.47
2023-04-06T06:01:41.494Z,99268.78
2023-04-06T06:04:11.148Z,99253.81
2023-04-06T06:06:39.533Z,99262.16
2023-04-06T06:09:07.975Z,99252.69
2023-04-06T06:11:38.502Z,99260.41
2023-04-06T06:14:07.009Z,99262.16
2023-04-06T06:16:35.533Z,99259.53
2023-04-06T06:19:04.036Z,99259.13
2023-04-06T06:21:33.245Z,99257.16
2023-04-06T06:24:01.365Z,99258.62
2023-04-06T06:26:30.244Z,99255.13
2023-04-06T06:28:58.415Z,99248.72
2023-04-06T06:31:27.323Z,99248.50
2023-04-06T06:33:55.741Z,99248.72
2023-04-06T06:36:23.860Z,99246.16
2023-04-06T06:38:51.836Z,99244.97
2023-04-06T06:41:20.593Z,99243.38
2023-04-06T06:43:48.895Z,99243.22
2023-04-06T06:46:16.864Z,99243.22
2023-04-06T06:48:45.167Z,99238.00
2023-04-06T06:51:13.344Z,99242.72
2023-04-06T06:53:41.659Z,99241.94
2023-04-06T06:56:10.141Z,99235.88
2023-04-06T06:58:38.234Z,99235.72
2023-04-06T07:01:06.531Z,99238.50
2023-04-06T07:03:35.538Z,99238.47
2023-04-06T07:06:03.496Z,99230.09
2023-04-06T07:08:31.450Z,99232.88
2023-04-06T07:10:59.696Z,99228.50
2023-04-06T07:13:28.766Z,99230.03
2023-04-06T07:15:56.893Z,99233.94
2023-04-06T07:18:25.332Z,99227.34
2023-04-06T07:20:53.368Z,99231.63
2023-04-06T07:23:21.498Z,99226.75
2023-04-06T07:25:52.198Z,99224.06
2023-04-06T07:28:20.192Z,99233.69
2023-04-06T07:30:48.705Z,99224.09
2023-04-06T07:33:17.228Z,99229.50
2023-04-06T07:35:45.242Z,99229.50
2023-04-06T07:38:17.405Z,99219.97
2023-04-06T07:40:45.955Z,99226.06
2023-04-06T07:43:14.733Z,99216.50
2023-04-06T07:45:43.268Z,99212.06
2023-04-06T07:48:12.124Z,99222.50
2023-04-06T07:50:41.503Z,99215.69
2023-04-06T07:53:10.303Z,99218.25
2023-04-06T07:55:40.671Z,99222.56
2023-04-06T07:58:12.244Z,99226.06
2023-04-06T08:00:42.465Z,99216.53
2023-04-06T08:03:11.038Z,99215.69
2023-04-06T08:05:39.096Z,99217.41
2023-04-06T08:08:07.101Z,99210.50
2023-04-06T08:10:35.775Z,99213.97
2023-04-06T08:13:03.732Z,99209.63
2023-04-06T08:15:33.540Z,99202.75
2023-04-06T08:18:02.052Z,99207.03
2023-04-06T08:20:29.944Z,99203.50
2023-04-06T08:22:57.813Z,99198.41
2023-04-06T08:25:26.428Z,99191.34
2023-04-06T08:27:54.421Z,99202.72
2023-04-06T08:30:22.387Z,99193.13
2023-04-06T08:32:51.190Z,99197.50
2023-04-06T08:35:20.551Z,99192.16
2023-04-06T08:37:48.479Z,99187.97
2023-04-06T08:40:16.995Z,99192.06
2023-04-06T08:42:53.547Z,99180.81
2023-04-06T08:45:22.596Z,99181.53
2023-04-06T08:47:54.306Z,99169.56
2023-04-06T08:50:23.040Z,99169.31
2023-04-06T08:52:51.188Z,99165.78
2023-04-06T08:55:19.320Z,99164.44
2023-04-06T08:57:49.499Z,99168.81
2023-04-06T09:00:19.201Z,99161.69
2023-04-06T09:02:47.765Z,99161.28
2023-04-06T09:05:15.968Z,99142.22
2023-04-06T09:07:43.985Z,99164.09
2023-04-06T09:10:12.250Z,99155.53
2023-04-06T09:12:40.227Z,99158.31
2023-04-06T09:15:20.247Z,99161.06
2023-04-06T09:17:53.569Z,99154.13
2023-04-06T09:20:27.547Z,99148.22
2023-04-06T09:22:57.561Z,99158.22
2023-04-06T09:25:28.105Z,99155.25
2023-04-06T09:28:01.569Z,99146.50
2023-04-06T09:30:29.769Z,99151.91
2023-04-06T09:33:00.499Z,99146.16
2023-04-06T09:35:32.645Z,99135.94
2023-04-06T09:38:00.994Z,99142.06
2023-04-06T09:40:31.563Z,99140.56
2023-04-06T09:43:00.644Z,99134.53
2023-04-06T09:45:31.997Z,99130.78
2023-04-06T09:48:02.832Z,99128.69
2023-04-06T09:50:31.927Z,99125.63
2023-04-06T09:53:00.852Z,99126.25
2023-04-06T09:55:41.769Z,99118.41
2023-04-06T09:58:20.499Z,99129.81
2023-04-06T10:01:02.156Z,99120.38
2023-04-06T10:03:51.700Z,99117.66
2023-04-06T10:06:27.554Z,99121.41
2023-04-06T10:08:56.847Z,99124.22
2023-04-06T10:11:24.856Z,99123.66
2023-04-06T10:13:52.852Z,99114.56
2023-04-06T10:16:21.221Z,99112.66
2023-04-06T10:18:53.775Z,99113.03
2023-04-06T10:21:25.081Z,99118.41
2023-04-06T10:23:55.796Z,99107.94
2023-04-06T10:26:24.172Z,99102.63
2023-04-06T10:28:52.256Z,99104.88
2023-04-06T10:31:30.794Z,99092.19
2023-04-06T10:34:03.425Z,99089.56
2023-04-06T10:36:36.694Z,99092.09
2023-04-06T10:39:06.258Z,99091.88
2023-04-06T10:41:42.399Z,99086.63
2023-04-06T10:44:18.343Z,99099.78
2023-04-06T10:46:54.960Z,99081.16
2023-04-06T10:49:25.245Z,99085.69
2023-04-06T10:51:59.699Z,99078.13
2023-04-06T10:54:28.451Z,99089.53
2023-04-06T10:56:57.758Z,99077.75
2023-04-06T10:59:26.632Z,99084.31
2023-04-06T11:01:57.199Z,99071.34
2023-04-06T11:04:26.551Z,99075.91
2023-04-06T11:06:56.202Z,99079.34
2023-04-06T11:09:28.071Z,99077.06
2023-04-06T11:11:57.321Z,99075.94
2023-04-06T11:14:25.531Z,99067.75
2023-04-06T11:16:53.625Z,99062.72
2023-04-06T11:19:21.948Z,99073.31
2023-04-06T11:21:51.285Z,99080.41
2023-04-06T11:24:23.323Z,99068.38
2023-04-06T11:26:53.846Z,99074.22
2023-04-06T11:29:30.702Z,99068.34
2023-04-06T11:32:03.761Z,99059.03
2023-04-06T11:34:34.101Z,99056.84
2023-04-06T11:37:07.076Z,99058.53
2023-04-06T11:39:41.592Z,99057.59
2023-04-06T11:42:10.685Z,99057.59
2023-04-06T11:44:50.493Z,99052.22
2023-04-06T11:47:18.870Z,99052.28
2023-04-06T11:49:46.805Z,99046.84
2023-04-06T11:52:23.690Z,99052.88
2023-04-06T11:54:53.736Z,99055.66
2023-04-06T11:57:26.799Z,99049.84
2023-04-06T11:59:55.140Z,99045.97
2023-04-06T12:02:23.507Z,99046.59
2023-04-06T12:04:52.074Z,99040.06
2023-04-06T12:07:20.160Z,99047.50
2023-04-06T12:09:48.104Z,99046.19
2023-04-06T12:12:16.458Z,99039.38
2023-04-06T12:14:44.538Z,99045.47
2023-04-06T12:17:12.526Z,99050.06
2023-04-06T12:19:41.796Z,99043.59
2023-04-06T12:22:13.678Z,99038.81
2023-04-06T12:24:41.988Z,99041.34
2023-04-06T12:27:11.687Z,99041.25
2023-04-06T12:29:39.837Z,99044.09
2023-04-06T12:32:08.226Z,99045.56
2023-04-06T12:34:36.345Z,99045.38
2023-04-06T12:37:04.418Z,99046.06
2023-04-06T12:39:32.872Z,99051.19
2023-04-06T12:42:00.839Z,99040.66
2023-04-06T12:44:30.851Z,99040.13
2023-04-06T12:46:59.325Z,99038.59
2023-04-06T12:49:27.295Z,99031.41
2023-04-06T12:51:55.376Z,99031.69
2023-04-06T12:54:23.711Z,99038.19
2023-04-06T12:56:51.790Z,99040.84
2023-04-06T12:59:19.794Z,99029.94
2023-04-06T13:01:48.309Z,99033.44
2023-04-06T13:04:16.455Z,99026.16
2023-04-06T13:06:44.447Z,99027.66
2023-04-06T13:09:15.804Z,99027.06
2023-04-06T13:11:43.642Z,99033.31
2023-04-06T13:14:11.496Z,99032.66
2023-04-06T13:16:39.813Z,99024.97
2023-04-06T13:19:07.775Z,99030.72
2023-04-06T13:21:39.790Z,99017.41
2023-04-06T13:24:08.066Z,99025.47
2023-04-06T13:26:36.508Z,99021.44
2023-04-06T13:29:06.505Z,99017.16
2023-04-06T13:31:34.790Z,99018.63
2023-04-06T13:34:04.938Z,99023.19
2023-04-06T13:36:33.399Z,99016.66
2023-04-06T13:39:01.674Z,99020.19
2023-04-06T13:41:32.922Z,99015.25
2023-04-06T13:44:01.398Z,99019.78
2023-04-06T13:46:29.339Z,99023.00
2023-04-06T13:48:57.284Z,99020.19
2023-04-06T13:51:25.558Z,99022.69
2023-04-06T13:53:56.836Z,99021.53
2023-04-06T13:56:24.684Z,99016.69
2023-04-06T13:58:56.920Z,99024.06
2023-04-06T14:01:25.108Z,99006.94
2023-04-06T14:03:53.798Z,99003.06
2023-04-06T14:06:31.032Z,99004.56
2023-04-06T14:09:00.722Z,99012.66
2023-04-06T14:11:29.374Z,99006.12
2023-04-06T14:16:46.342Z,99008.63
2023-04-06T14:19:18.797Z,99004.59
2023-04-06T14:21:47.114Z,99004.03
2023-04-06T14:24:15.235Z,99003.81
2023-04-06T14:26:44.020Z,99002.91
2023-04-06T14:29:12.342Z,99001.87
2023-04-06T14:31:40.334Z,99002.50
2023-04-06T14:34:08.344Z,98993.78
2023-04-06T14:36:39.843Z,99014.97
2023-04-06T14:39:08.237Z,99011.47
2023-04-06T14:41:37.039Z,99014.84
2023-04-06T14:44:06.036Z,99014.88
2023-04-06T14:46:34.681Z,99011.47
2023-04-06T14:49:03.151Z,99013.28
2023-04-06T14:51:31.710Z,99011.50
2023-04-06T14:54:04.817Z,99017.47
2023-04-06T14:56:33.329Z,99016.63
2023-04-06T14:59:02.848Z,99023.16
2023-04-06T15:01:34.915Z,99023.44
2023-04-06T15:04:04.999Z,99030.31
2023-04-06T15:06:35.163Z,99023.44
2023-04-06T15:09:04.064Z,99020.16
2023-04-06T15:11:35.816Z,99017.56
2023-04-06T15:14:04.048Z,99024.66
2023-04-06T15:16:33.836Z,99024.00
2023-04-06T15:19:02.696Z,99031.00
2023-04-06T15:21:32.310Z,99027.44
2023-04-06T15:24:00.425Z,99030.03
2023-04-06T15:26:28.398Z,99020.41
2023-04-06T15:28:56.745Z,99019.66
2023-04-06T15:31:36.544Z,99015.09
2023-04-06T15:34:09.399Z,99018.72
2023-04-06T15:36:37.614Z,99013.62
2023-04-06T15:39:10.179Z,99011.06
2023-04-06T15:41:38.716Z,99007.59
2023-04-06T15:44:07.032Z,99010.09
2023-04-06T15:46:34.959Z,99004.78
2023-04-06T15:49:03.789Z,99008.03
2023-04-06T15:51:31.917Z,99013.31
2023-04-06T15:53:59.891Z,99017.63
2023-04-06T15:56:28.156Z,99028.25
2023-04-06T15:58:56.180Z,99034.34
2023-04-06T16:01:24.124Z,99036.91
2023-04-06T16:03:53.985Z,99042.16
2023-04-06T16:06:23.482Z,99040.44
2023-04-06T16:08:51.548Z,99045.63
2023-04-06T16:11:20.970Z,99043.09
2023-04-06T16:13:55.296Z,99047.38
2023-04-06T16:16:24.578Z,99053.44
2023-04-06T16:18:52.488Z,99043.06
2023-04-06T16:21:20.561Z,99058.59
2023-04-06T16:23:48.846Z,99055.16
2023-04-06T16:26:20.468Z,99067.22
2023-04-06T16:28:49.680Z,99069.75
2023-04-06T16:31:19.506Z,99079.09
2023-04-06T16:33:48.636Z,99075.78
2023-04-06T16:36:32.060Z,99077.28
2023-04-06T16:39:02.617Z,99082.22
2023-04-06T16:41:32.354Z,99083.91
2023-04-06T16:44:00.785Z,99086.66
2023-04-06T16:46:36.250Z,99085.59
2023-04-06T16:49:07.005Z,99082.97
2023-04-06T16:51:35.360Z,99085.31
2023-04-06T16:54:04.053Z,99076.81
2023-04-06T16:56:32.581Z,99085.97
2023-04-06T16:59:00.654Z,99094.69
2023-04-06T17:01:29.523Z,99089.22
2023-04-06T17:03:58.036Z,99090.91
2023-04-06T17:06:27.910Z,99085.63
2023-04-06T17:08:55.968Z,99099.75
2023-04-06T17:11:28.656Z,99097.12
2023-04-06T17:14:03.938Z,99090.22
2023-04-06T17:16:32.699Z,99095.75
2023-04-06T17:19:01.102Z,99095.56
2023-04-06T17:21:28.977Z,99091.00
2023-04-06T17:23:57.208Z,99095.72
2023-04-06T17:26:25.113Z,99100.09
2023-04-06T17:28:53.034Z,99104.34
2023-04-06T17:31:22.582Z,99108.34
2023-04-06T17:33:50.634Z,99108.28
2023-04-06T17:36:21.359Z,99104.34
2023-04-06T17:38:50.280Z,99112.59
2023-04-06T17:41:18.184Z,99107.63
2023-04-06T17:43:46.651Z,99116.34
2023-04-06T17:46:15.654Z,99113.91
2023-04-06T17:48:44.213Z,99128.69
2023-04-06T17:51:14.534Z,99125.72
2023-04-06T17:53:42.754Z,99125.44
2023-04-06T17:56:10.602Z,99133.16
2023-04-06T17:58:38.553Z,99132.59
2023-04-06T18:01:08.785Z,99127.75
2023-04-06T18:03:38.505Z,99129.09
2023-04-06T18:06:17.085Z,99128.06
2023-04-06T18:08:45.715Z,99127.84
2023-04-06T18:11:21.964Z,99126.41
2023-04-06T18:13:50.665Z,99114.56
2023-04-06T18:16:21.531Z,99127.91
2023-04-06T18:18:49.732Z,99131.66
2023-04-06T18:21:18.006Z,99127.72
2023-04-06T18:23:46.764Z,99135.91
2023-04-06T18:26:18.138Z,99139.94
2023-04-06T18:28:46.932Z,99119.56
2023-04-06T18:31:14.924Z,99127.75
2023-04-06T18:33:43.998Z,99128.34
2023-04-06T18:36:12.321Z,99127.00
2023-04-06T18:38:44.802Z,99130.31
2023-04-06T18:41:13.130Z,99133.59
2023-04-06T18:43:41.659Z,99119.06
2023-04-06T18:46:13.889Z,99125.63
2023-04-06T18:48:42.883Z,99128.62
2023-04-06T18:51:10.868Z,99131.78
2023-04-06T18:53:39.949Z,99130.91
2023-04-06T18:56:19.535Z,99129.09
2023-04-06T18:58:49.374Z,99139.16
2023-04-06T19:01:22.315Z,99141.47
2023-04-06T19:03:51.327Z,99132.91
2023-04-06T19:06:19.648Z,99131.16
2023-04-06T19:08:47.949Z,99127.62
2023-04-06T19:11:16.930Z,99123.81
2023-04-06T19:13:50.321Z,99125.56
2023-04-06T19:16:18.801Z,99125.84
2023-04-06T19:18:47.121Z,99122.69
2023-04-06T19:21:16.584Z,99121.50
2023-04-06T19:23:49.189Z,99122.81
2023-04-06T19:26:19.533Z,99107.28
2023-04-06T19:28:47.785Z,99107.81
2023-04-06T19:31:17.409Z,99109.63
2023-04-06T19:33:47.132Z,99109.94
2023-04-06T19:36:15.754Z,99107.28
2023-04-06T19:38:43.929Z,99109.13
2023-04-06T19:41:12.226Z,99103.34
2023-04-06T19:43:40.125Z,99090.25
2023-04-06T19:46:09.439Z,99090.94
2023-04-06T19:48:37.746Z,99096.09
2023-04-06T19:51:05.865Z,99093.34
2023-04-06T19:53:33.778Z,99088.25
2023-04-06T19:56:02.000Z,99091.38
2023-04-06T19:58:29.937Z,99094.16
2023-04-06T20:00:57.914Z,99096.97
2023-04-06T20:03:26.316Z,99082.22
2023-04-06T20:05:54.370Z,99089.56
2023-04-06T20:08:22.825Z,99094.34
2023-04-06T20:10:52.335Z,99092.69
2023-04-06T20:13:21.100Z,99089.16
2023-04-06T20:15:49.481Z,99087.81
2023-04-06T20:18:17.672Z,99085.38
2023-04-06T20:20:45.692Z,99088.69
2023-04-06T20:23:13.633Z,99096.69
2023-04-06T20:25:42.417Z,99086.72
2023-04-06T20:28:10.877Z,99090.09
2023-04-06T20:30:39.418Z,99100.41
2023-04-06T20:33:07.887Z,99098.03
2023-04-06T20:35:36.015Z,99096.19
2023-04-06T20:38:03.881Z,99092.84
2023-04-06T20:40:32.277Z,99089.59
2023-04-06T20:43:00.975Z,99091.50
2023-04-06T20:45:29.924Z,99088.78
2023-04-06T20:47:58.646Z,99092.25
2023-04-06T20:50:26.726Z,99097.50
2023-04-06T20:52:54.702Z,99098.19
2023-04-06T20:55:22.936Z,99092.78
2023-04-06T20:57:51.022Z,99089.22
2023-04-06T21:00:19.142Z,99091.63
2023-04-06T21:02:47.641Z,99086.00
2023-04-06T21:05:15.951Z,99090.31
2023-04-06T21:07:43.856Z,99082.34
2023-04-06T21:10:12.114Z,99083.81
2023-04-06T21:12:40.499Z,99083.91
2023-04-06T21:15:08.898Z,99084.63
2023-04-06T21:17:37.075Z,99077.50
2023-04-06T21:20:05.561Z,99078.91
2023-04-06T21:22:33.398Z,99084.19
2023-04-06T21:25:01.756Z,99083.09
2023-04-06T21:27:30.171Z,99080.88
2023-04-06T21:29:58.063Z,99071.31
2023-04-06T21:32:26.381Z,99070.63
2023-04-06T21:34:54.251Z,99070.59
2023-04-06T21:37:22.110Z,99074.75
2023-04-06T21:39:50.362Z,99067.19
2023-04-06T21:42:18.262Z,99065.41
2023-04-06T21:44:46.144Z,99074.69
2023-04-06T21:47:14.363Z,99065.44
2023-04-06T21:49:42.271Z,99063.13
2023-04-06T21:52:10.201Z,99066.94
2023-04-06T21:54:38.920Z,99063.84
2023-04-06T21:57:06.992Z,99058.50
2023-04-06T21:59:34.850Z,99056.50
2023-04-06T22:02:03.154Z,99054.44
2023-04-06T22:04:32.047Z,99050.84
2023-04-06T22:07:00.271Z,99044.12
2023-04-06T22:09:28.179Z,99044.84
2023-04-06T22:11:56.435Z,99043.22
2023-04-06T22:14:24.388Z,99038.56
2023-04-06T22:16:52.335Z,99041.28
2023-04-06T22:19:20.663Z,99032.87
2023-04-06T22:21:48.972Z,99036.03
2023-04-06T22:24:17.139Z,99038.31
2023-04-06T22:26:45.744Z,99040.78
2023-04-06T22:29:13.695Z,99034.28
2023-04-06T22:31:41.618Z,99036.78
2023-04-06T22:34:09.930Z,99024.63
2023-04-06T22:36:37.884Z,99025.34
2023-04-06T22:39:05.985Z,99029.88
2023-04-06T22:41:34.263Z,99029.75
2023-04-06T22:44:02.344Z,99033.53
2023-04-06T22:46:30.232Z,99033.47
2023-04-06T22:48:58.434Z,99032.50
2023-04-06T22:51:28.282Z,99031.31
2023-04-06T22:53:56.152Z,99035.28
2023-04-06T22:56:24.423Z,99029.75
2023-04-06T22:58:52.406Z,99032.56
2023-04-06T23:01:20.532Z,99029.41
2023-04-06T23:03:48.885Z,99030.31
2023-04-06T23:06:17.181Z,99032.59
2023-04-06T23:08:45.019Z,99028.16
2023-04-06T23:11:13.670Z,99024.34
2023-04-06T23:13:41.562Z,99022.53
2023-04-06T23:16:09.496Z,99013.28
2023-04-06T23:18:37.865Z,99012.69
2023-04-06T23:21:08.628Z,99009.81
2023-04-06T23:23:36.715Z,99008.22
2023-04-06T23:26:05.190Z,99014.31
2023-04-06T23:28:33.039Z,99004.94
2023-04-06T23:31:00.883Z,99006.50
2023-04-06T23:33:29.381Z,98999.75
2023-04-06T23:35:57.292Z,98996.38
2023-04-06T23:38:25.204Z,99002.56
2023-04-06T23:40:53.430Z,99001.47
2023-04-06T23:43:21.316Z,98994.63
2023-04-06T23:45:49.165Z,99001.50
2023-04-06T23:48:17.424Z,98999.06
2023-04-06T23:50:45.584Z,98998.97
2023-04-06T23:53:13.502Z,99006.41
2023-04-06T23:55:41.731Z,99002.09
2023-04-06T23:58:09.708Z,98994.19
